Time;durP1;ratioP1;P1;durP2;ratioP2;P2;SDS_P1;SDS_P2;PMS_P1;PMS_P2;Temp;Humidity;BMP_temperature;BMP_pressure;BME280_temperature;BME280_humidity;BME280_pressure;Samples;Min_cycle;Max_cycle;Signal;HPM_P1;HPM_P2
2023/04/29 00:00:24;;;;;;;5.45;3.65;;;15.20;67.40;;;;;;10404383;28;20103;-55
2023/04/29 00:05:25;;;;;;;6.10;3.70;;;15.20;67.50;;;;;;10404396;28;20901;-54
2023/04/29 00:10:26;;;;;;;4.70;3.20;;;15.20;67.40;;;;;;10404164;28;20117;-55
2023/04/29 00:15:27;;;;;;;6.03;4.47;;;15.10;67.40;;;;;;10404686;28;20112;-55
2023/04/29 00:20:27;;;;;;;4.80;3.55;;;15.10;67.40;;;;;;10404227;28;20026;-55
2023/04/29 00:25:29;;;;;;;6.20;4.32;;;15.20;67.50;;;;;;10391091;28;20084;-54
2023/04/29 00:30:32;;;;;;;6.82;3.80;;;15.10;67.40;;;;;;10403769;28;20083;-55
2023/04/29 00:35:33;;;;;;;6.18;4.00;;;15.20;67.50;;;;;;10403969;28;20048;-55
2023/04/29 00:40:34;;;;;;;4.28;3.72;;;15.10;67.40;;;;;;10403641;28;20022;-55
2023/04/29 00:45:35;;;;;;;5.53;3.35;;;15.10;67.40;;;;;;10402378;28;20017;-55
2023/04/29 00:50:36;;;;;;;5.40;3.42;;;15.20;67.50;;;;;;10406620;28;20116;-55
2023/04/29 00:55:37;;;;;;;6.15;4.43;;;15.10;67.40;;;;;;10411295;28;20021;-56
2023/04/29 01:00:38;;;;;;;7.82;4.40;;;15.10;67.40;;;;;;10409957;28;20021;-54
2023/04/29 01:05:39;;;;;;;8.38;4.30;;;15.10;67.40;;;;;;10409340;28;20084;-54
2023/04/29 01:11:08;;;;;;;5.45;3.78;;;15.10;67.40;;;;;;10409344;28;20101;-54
2023/04/29 01:16:24;;;;;;;4.95;3.30;;;15.10;67.40;;;;;;10410379;28;20079;-54
2023/04/29 01:21:25;;;;;;;6.43;3.50;;;15.10;67.50;;;;;;10409010;28;20052;-52
2023/04/29 01:26:29;;;;;;;4.80;3.72;;;15.10;67.40;;;;;;10409926;28;20109;-54
2023/04/29 01:31:44;;;;;;;4.60;2.97;;;15.10;67.40;;;;;;10408542;28;20029;-54
2023/04/29 01:37:14;;;;;;;6.13;3.67;;;15.10;67.40;;;;;;10408532;28;20033;-54
2023/04/29 01:42:31;;;;;;;5.88;3.97;;;15.10;67.40;;;;;;10408417;28;20571;-53
2023/04/29 01:47:32;;;;;;;8.18;4.63;;;15.10;67.40;;;;;;10408541;28;20018;-54
2023/04/29 01:52:33;;;;;;;7.38;4.32;;;15.10;67.40;;;;;;10407958;28;20025;-55
2023/04/29 01:57:34;;;;;;;6.53;3.80;;;15.10;67.40;;;;;;10408819;28;20121;-55
2023/04/29 02:02:35;;;;;;;5.13;3.30;;;15.00;67.40;;;;;;10407269;28;20751;-54
2023/04/29 02:07:35;;;;;;;6.93;4.43;;;15.00;67.40;;;;;;10408182;28;20053;-55
2023/04/29 02:12:36;;;;;;;5.53;3.75;;;15.00;67.40;;;;;;10408651;28;20043;-53
2023/04/29 02:17:37;;;;;;;5.25;3.58;;;15.00;67.40;;;;;;10407771;28;20013;-54
2023/04/29 02:22:38;;;;;;;6.35;4.35;;;15.00;67.40;;;;;;10406404;28;20071;-54
2023/04/29 02:27:38;;;;;;;4.57;3.05;;;15.00;67.40;;;;;;10407250;28;20029;-53
2023/04/29 02:32:39;;;;;;;5.63;3.03;;;15.00;67.40;;;;;;10407151;28;20504;-54
2023/04/29 02:37:40;;;;;;;4.68;3.25;;;15.00;67.40;;;;;;10405985;28;20121;-55
2023/04/29 02:42:41;;;;;;;5.00;3.20;;;15.00;67.30;;;;;;10407186;28;20043;-55
2023/04/29 02:47:42;;;;;;;4.97;2.65;;;15.00;67.30;;;;;;10407042;28;20014;-54
2023/04/29 02:52:43;;;;;;;4.85;3.53;;;15.00;67.40;;;;;;10406638;28;20465;-55
2023/04/29 02:57:43;;;;;;;4.78;3.47;;;15.00;67.40;;;;;;10406607;28;20009;-56
2023/04/29 03:02:44;;;;;;;4.38;3.00;;;15.00;67.40;;;;;;10404685;28;20602;-52
2023/04/29 03:07:45;;;;;;;5.20;3.05;;;15.00;67.40;;;;;;10406417;28;20588;-53
2023/04/29 03:12:45;;;;;;;4.40;2.95;;;15.00;67.40;;;;;;10404225;28;20080;-53
2023/04/29 03:17:46;;;;;;;4.70;3.15;;;15.00;67.40;;;;;;10404403;28;20429;-55
2023/04/29 03:22:47;;;;;;;4.82;3.42;;;15.00;67.40;;;;;;10403696;28;20168;-54
2023/04/29 03:27:47;;;;;;;6.07;3.58;;;15.00;67.40;;;;;;10400257;28;20587;-55
2023/04/29 03:32:48;;;;;;;5.88;4.00;;;15.00;67.40;;;;;;10403785;28;20475;-54
2023/04/29 03:37:49;;;;;;;7.55;5.40;;;15.00;67.40;;;;;;10401598;28;20129;-51
2023/04/29 03:42:49;;;;;;;4.57;3.25;;;15.00;67.50;;;;;;10402722;28;20089;-54
2023/04/29 03:47:52;;;;;;;5.10;3.60;;;15.20;66.70;;;;;;10403617;28;20554;-55
2023/04/29 03:52:52;;;;;;;5.95;3.75;;;15.60;65.50;;;;;;10403154;28;20026;-53
2023/04/29 03:57:53;;;;;;;6.40;3.58;;;16.00;64.30;;;;;;10403567;28;20649;-55
2023/04/29 04:02:54;;;;;;;5.63;3.72;;;16.30;63.50;;;;;;10403498;28;20165;-55
2023/04/29 04:07:54;;;;;;;6.32;3.72;;;16.50;62.60;;;;;;10407288;28;20049;-54
2023/04/29 04:12:55;;;;;;;5.45;3.85;;;16.70;62.30;;;;;;10407362;28;20068;-55
2023/04/29 04:17:56;;;;;;;6.40;3.80;;;16.70;62.30;;;;;;10401880;28;20415;-56
2023/04/29 04:22:57;;;;;;;5.22;2.88;;;16.60;62.60;;;;;;10399264;28;20054;-53
2023/04/29 04:27:57;;;;;;;4.30;3.38;;;16.60;62.90;;;;;;10407762;28;20025;-53
2023/04/29 04:32:58;;;;;;;4.28;3.13;;;16.50;63.10;;;;;;10412156;28;20108;-53
2023/04/29 04:37:59;;;;;;;5.13;3.50;;;16.50;63.30;;;;;;10410391;28;20702;-55
2023/04/29 04:42:59;;;;;;;5.85;3.42;;;16.40;63.40;;;;;;10411914;28;20496;-55
2023/04/29 04:48:00;;;;;;;4.43;2.97;;;16.50;63.40;;;;;;10411228;28;20018;-54
2023/04/29 04:53:01;;;;;;;4.90;3.33;;;16.40;63.60;;;;;;10409949;28;20044;-54
2023/04/29 04:58:01;;;;;;;4.20;2.63;;;16.30;64.00;;;;;;10409882;28;20516;-55
2023/04/29 05:03:02;;;;;;;4.43;3.10;;;16.20;64.30;;;;;;10410973;28;20041;-52
2023/04/29 05:08:03;;;;;;;5.97;4.78;;;16.00;64.70;;;;;;10410904;28;20033;-55
2023/04/29 05:13:04;;;;;;;3.10;2.42;;;16.00;65.00;;;;;;10395869;28;20037;-52
2023/04/29 05:18:05;;;;;;;4.32;2.60;;;16.10;64.60;;;;;;10405168;28;20076;-51
2023/04/29 05:23:06;;;;;;;5.68;3.35;;;16.10;64.50;;;;;;10408757;28;20025;-54
2023/04/29 05:28:06;;;;;;;6.53;3.67;;;16.10;65.00;;;;;;10393770;28;20061;-52
2023/04/29 05:33:07;;;;;;;5.60;2.30;;;16.20;64.70;;;;;;10407365;28;20029;-53
2023/04/29 05:38:07;;;;;;;7.25;3.15;;;16.30;64.70;;;;;;10407899;28;20049;-54
2023/04/29 05:43:08;;;;;;;6.53;2.83;;;16.20;64.70;;;;;;10406162;28;20632;-54
2023/04/29 05:48:09;;;;;;;3.72;3.08;;;16.10;64.80;;;;;;10407401;28;20109;-52
2023/04/29 05:53:10;;;;;;;7.88;3.58;;;16.10;65.10;;;;;;10408823;28;20414;-50
2023/04/29 05:58:11;;;;;;;6.90;3.13;;;16.00;65.30;;;;;;10408664;28;20168;-55
2023/04/29 06:03:12;;;;;;;4.03;2.55;;;16.00;65.40;;;;;;10400588;28;20038;-54
2023/04/29 06:08:13;;;;;;;5.57;3.33;;;16.00;65.30;;;;;;10424010;28;20068;-51
2023/04/29 06:13:14;;;;;;;5.57;2.90;;;16.00;65.50;;;;;;10408385;28;20034;-55
2023/04/29 06:18:14;;;;;;;5.88;3.20;;;16.00;65.60;;;;;;10406988;28;20404;-52
2023/04/29 06:23:15;;;;;;;4.60;3.35;;;15.90;65.80;;;;;;10423603;28;20121;-53
2023/04/29 06:28:16;;;;;;;6.32;2.83;;;15.90;65.80;;;;;;10407622;28;20151;-55
2023/04/29 06:33:17;;;;;;;6.03;2.90;;;15.90;65.80;;;;;;10392793;28;20384;-55
2023/04/29 06:38:17;;;;;;;5.03;3.05;;;15.90;65.90;;;;;;10389645;28;20030;-52
2023/04/29 06:43:18;;;;;;;4.50;3.25;;;15.80;65.90;;;;;;10406929;28;20108;-52
2023/04/29 06:48:19;;;;;;;5.50;3.88;;;15.90;66.10;;;;;;10404925;28;20439;-53
2023/04/29 06:53:20;;;;;;;4.78;3.65;;;15.80;66.20;;;;;;10405740;28;20018;-54
2023/04/29 06:58:21;;;;;;;5.43;3.15;;;15.80;66.20;;;;;;10383672;28;20055;-54
2023/04/29 07:03:21;;;;;;;3.58;2.33;;;15.90;66.10;;;;;;10405151;28;20439;-55
2023/04/29 07:08:22;;;;;;;5.32;3.50;;;15.90;65.90;;;;;;10406281;28;20524;-52
2023/04/29 07:13:26;;;;;;;6.82;3.15;;;15.90;65.90;;;;;;10404195;28;20057;-53
2023/04/29 07:18:27;;;;;;;4.75;3.08;;;16.00;66.50;;;;;;10403742;28;20079;-55
2023/04/29 07:23:27;;;;;;;4.20;2.90;;;16.10;67.70;;;;;;10403367;28;20111;-53
2023/04/29 07:28:28;;;;;;;5.90;3.20;;;16.10;67.30;;;;;;10401465;28;20037;-54
2023/04/29 07:33:29;;;;;;;5.70;3.20;;;16.20;67.30;;;;;;10404864;28;20128;-55
2023/04/29 07:38:30;;;;;;;5.18;3.22;;;16.00;67.10;;;;;;10404435;28;20057;-55
2023/04/29 07:43:31;;;;;;;6.53;3.92;;;16.00;67.40;;;;;;10404009;28;20597;-54
2023/04/29 07:48:37;;;;;;;4.55;3.10;;;16.00;67.30;;;;;;10404618;28;20029;-56
2023/04/29 07:53:37;;;;;;;5.70;3.88;;;15.90;67.30;;;;;;10403663;28;20107;-55
2023/04/29 07:58:38;;;;;;;6.53;3.63;;;15.90;67.40;;;;;;10403354;28;20147;-55
2023/04/29 08:03:39;;;;;;;5.50;3.45;;;15.90;67.20;;;;;;10411713;28;20131;-54
2023/04/29 08:08:40;;;;;;;4.60;3.28;;;15.90;67.30;;;;;;10412199;28;20025;-53
2023/04/29 08:13:41;;;;;;;9.35;3.50;;;15.80;67.30;;;;;;10411611;28;20041;-54
2023/04/29 08:18:42;;;;;;;10.15;3.88;;;15.90;68.00;;;;;;10411304;28;20540;-50
2023/04/29 08:23:43;;;;;;;5.97;4.30;;;15.90;68.00;;;;;;10410537;28;20170;-54
2023/04/29 08:28:44;;;;;;;6.82;3.30;;;15.90;67.90;;;;;;10390181;28;20062;-55
2023/04/29 08:33:44;;;;;;;6.05;3.92;;;15.80;67.70;;;;;;10410412;28;20108;-54
2023/04/29 08:38:47;;;;;;;8.55;3.63;;;15.90;67.60;;;;;;10406831;28;20556;-54
2023/04/29 08:43:48;;;;;;;6.90;3.97;;;15.80;67.40;;;;;;10408314;28;20487;-54
2023/04/29 08:48:50;;;;;;;5.18;3.63;;;15.70;67.80;;;;;;10407167;28;20042;-54
2023/04/29 08:53:51;;;;;;;6.75;3.53;;;15.80;67.90;;;;;;10405086;28;20049;-54
2023/04/29 08:58:57;;;;;;;5.88;3.38;;;15.70;67.80;;;;;;10404918;28;20025;-55
2023/04/29 09:04:03;;;;;;;5.05;3.08;;;15.80;68.00;;;;;;10405693;28;20719;-55
2023/04/29 09:09:05;;;;;;;5.32;3.72;;;15.80;67.90;;;;;;10408899;28;20044;-55
2023/04/29 09:14:08;;;;;;;4.95;3.22;;;15.80;67.90;;;;;;10407753;28;20104;-55
2023/04/29 09:19:08;;;;;;;5.13;2.80;;;15.80;67.90;;;;;;10408390;28;20389;-55
2023/04/29 09:24:09;;;;;;;5.30;3.33;;;15.80;67.90;;;;;;10403604;28;20031;-51
2023/04/29 09:29:15;;;;;;;7.15;3.03;;;15.80;67.90;;;;;;10374786;28;20056;-54
2023/04/29 09:34:15;;;;;;;5.95;2.70;;;15.80;67.80;;;;;;10403165;28;20675;-55
2023/04/29 09:39:19;;;;;;;4.47;3.17;;;15.70;67.80;;;;;;10407910;28;20028;-54
2023/04/29 09:44:31;;;;;;;4.50;2.83;;;15.80;67.90;;;;;;10407954;28;20097;-51
2023/04/29 09:49:39;;;;;;;5.40;3.50;;;15.80;67.90;;;;;;10408802;28;20033;-53
2023/04/29 09:54:42;;;;;;;5.38;2.83;;;15.80;67.80;;;;;;10408918;28;20410;-55
2023/04/29 09:59:42;;;;;;;4.78;3.38;;;15.80;67.80;;;;;;10408948;28;20030;-54
2023/04/29 10:04:53;;;;;;;4.80;2.33;;;15.80;67.80;;;;;;10390878;28;20081;-56
2023/04/29 10:09:54;;;;;;;3.92;3.03;;;15.80;67.50;;;;;;10407997;28;20095;-54
2023/04/29 10:15:09;;;;;;;5.25;3.20;;;15.80;67.70;;;;;;10406806;28;20017;-55
2023/04/29 10:20:15;;;;;;;6.40;2.67;;;15.70;67.70;;;;;;10405800;28;20025;-53
2023/04/29 10:25:18;;;;;;;5.93;2.80;;;15.80;68.40;;;;;;10399936;28;20695;-53
2023/04/29 10:30:21;;;;;;;10.40;3.70;;;15.90;67.40;;;;;;10373183;28;20412;-54
2023/04/29 10:35:23;;;;;;;12.23;4.03;;;15.90;67.50;;;;;;10365503;28;20543;-54
2023/04/29 10:40:35;;;;;;;3.78;2.70;;;15.80;67.80;;;;;;10365045;28;20026;-55
2023/04/29 10:45:37;;;;;;;8.38;3.38;;;15.80;67.80;;;;;;10361956;28;20010;-52
2023/04/29 10:50:47;;;;;;;7.90;3.22;;;15.80;67.80;;;;;;10362024;28;20046;-53
2023/04/29 10:56:03;;;;;;;8.73;4.45;;;15.80;67.50;;;;;;10357534;28;20046;-52
2023/04/29 11:01:04;;;;;;;6.97;3.50;;;15.90;67.20;;;;;;10360937;28;20083;-54
2023/04/29 11:06:08;;;;;;;5.22;2.95;;;16.00;66.90;;;;;;10362209;28;20089;-55
2023/04/29 11:11:09;;;;;;;4.47;2.85;;;16.10;67.30;;;;;;10362697;28;20034;-54
2023/04/29 11:16:11;;;;;;;8.00;3.20;;;16.40;67.30;;;;;;10361011;28;20025;-53
2023/04/29 11:21:13;;;;;;;4.80;3.17;;;16.50;67.80;;;;;;10359103;28;20046;-55
2023/04/29 11:26:14;;;;;;;6.72;2.53;;;16.60;67.10;;;;;;10361274;28;20222;-55
2023/04/29 11:31:14;;;;;;;6.03;2.85;;;16.60;67.00;;;;;;10359382;28;20045;-53
2023/04/29 11:36:15;;;;;;;5.32;2.70;;;16.60;67.40;;;;;;10360763;28;20089;-53
2023/04/29 11:41:16;;;;;;;5.75;3.58;;;16.50;67.30;;;;;;10351950;28;20101;-56
2023/04/29 11:46:17;;;;;;;7.57;3.20;;;16.50;67.50;;;;;;10358735;28;20439;-55
2023/04/29 11:51:18;;;;;;;5.95;3.20;;;16.40;67.40;;;;;;10361780;28;20026;-55
2023/04/29 11:56:24;;;;;;;7.68;3.13;;;16.40;67.40;;;;;;10359443;28;20033;-54
2023/04/29 12:01:26;;;;;;;7.43;3.03;;;16.30;67.70;;;;;;10359676;28;20232;-52
2023/04/29 12:06:28;;;;;;;5.20;2.70;;;16.40;67.60;;;;;;10348259;28;20069;-55
2023/04/29 12:11:29;;;;;;;7.32;3.33;;;16.40;67.60;;;;;;10359871;28;20238;-50
2023/04/29 12:16:31;;;;;;;4.38;2.67;;;16.40;68.10;;;;;;10358240;28;20093;-55
2023/04/29 12:21:33;;;;;;;4.13;2.50;;;16.30;67.80;;;;;;10355204;28;20026;-53
2023/04/29 12:26:34;;;;;;;7.03;2.65;;;16.30;67.60;;;;;;10360467;28;20026;-51
2023/04/29 12:31:35;;;;;;;3.95;2.53;;;16.30;67.30;;;;;;10358480;28;20359;-52
2023/04/29 12:36:36;;;;;;;4.75;2.85;;;16.30;67.50;;;;;;10358887;28;20058;-54
2023/04/29 12:41:40;;;;;;;5.90;3.13;;;16.30;67.30;;;;;;10374316;28;20030;-51
2023/04/29 12:46:41;;;;;;;4.20;1.92;;;16.40;67.30;;;;;;10363050;28;20103;-54
2023/04/29 12:51:42;;;;;;;4.78;3.17;;;16.40;67.30;;;;;;10369193;28;20378;-54
2023/04/29 12:56:42;;;;;;;5.15;2.58;;;16.30;67.50;;;;;;10369246;28;20109;-54
2023/04/29 13:01:43;;;;;;;4.65;2.40;;;16.50;67.40;;;;;;10367559;28;20028;-54
2023/04/29 13:06:44;;;;;;;4.38;2.40;;;16.40;67.00;;;;;;10368913;28;20056;-53
2023/04/29 13:11:46;;;;;;;4.50;2.28;;;16.40;67.40;;;;;;10368080;28;20030;-54
2023/04/29 13:16:46;;;;;;;2.97;2.30;;;16.30;67.40;;;;;;10368082;28;20022;-52
2023/04/29 13:21:47;;;;;;;5.00;2.10;;;16.30;67.40;;;;;;10364718;28;20394;-54
2023/04/29 13:26:48;;;;;;;4.53;2.13;;;16.30;68.20;;;;;;10351517;28;20033;-50
2023/04/29 13:31:48;;;;;;;3.35;1.83;;;16.30;68.20;;;;;;10363219;28;20112;-51
2023/04/29 13:36:49;;;;;;;3.95;2.13;;;16.30;68.00;;;;;;10349310;28;20445;-51
2023/04/29 13:41:50;;;;;;;4.15;2.60;;;16.30;68.50;;;;;;10367007;28;20021;-51
2023/04/29 13:46:51;;;;;;;2.58;2.00;;;16.30;68.00;;;;;;10364860;28;20079;-52
2023/04/29 13:51:51;;;;;;;2.35;1.58;;;16.20;68.00;;;;;;10366315;28;20058;-53
2023/04/29 13:56:52;;;;;;;3.40;2.40;;;16.20;68.10;;;;;;10364909;28;20073;-53
2023/04/29 14:01:53;;;;;;;2.97;2.05;;;16.20;68.20;;;;;;10365469;28;20384;-49
2023/04/29 14:06:55;;;;;;;4.07;2.50;;;16.10;68.10;;;;;;10365769;28;20460;-50
2023/04/29 14:11:55;;;;;;;3.20;2.40;;;16.20;68.10;;;;;;10365368;28;20092;-53
2023/04/29 14:16:56;;;;;;;2.97;2.10;;;16.10;68.10;;;;;;10365955;28;20081;-53
2023/04/29 14:21:57;;;;;;;3.35;1.50;;;16.10;68.10;;;;;;10365050;28;20294;-53
2023/04/29 14:26:58;;;;;;;3.38;1.80;;;16.10;68.00;;;;;;10351674;28;20036;-51
2023/04/29 14:31:58;;;;;;;2.40;1.80;;;16.10;67.80;;;;;;10366239;28;20109;-49
2023/04/29 14:36:59;;;;;;;3.13;1.95;;;16.10;68.20;;;;;;10364633;28;20061;-53
2023/04/29 14:42:01;;;;;;;2.80;1.80;;;16.10;68.20;;;;;;10363649;28;20053;-50
2023/04/29 14:47:03;;;;;;;2.80;1.90;;;16.10;68.10;;;;;;10363775;28;20022;-52
2023/04/29 14:52:03;;;;;;;1.88;1.50;;;16.10;68.10;;;;;;10362798;28;20045;-54
2023/04/29 14:57:04;;;;;;;3.35;2.17;;;16.10;68.00;;;;;;10364199;28;20389;-51
2023/04/29 15:02:05;;;;;;;2.50;1.85;;;16.10;67.90;;;;;;10362343;28;20014;-52
2023/04/29 15:07:06;;;;;;;3.47;2.25;;;16.00;67.50;;;;;;10363380;28;20504;-51
2023/04/29 15:12:07;;;;;;;3.78;1.67;;;16.10;67.30;;;;;;10362842;28;20033;-50
2023/04/29 15:17:08;;;;;;;3.15;2.10;;;16.20;67.80;;;;;;10363385;28;20018;-53
2023/04/29 15:22:09;;;;;;;4.88;1.92;;;16.10;67.90;;;;;;10362274;28;20631;-52
2023/04/29 15:27:10;;;;;;;4.10;2.30;;;16.10;67.80;;;;;;10364228;28;20053;-55
2023/04/29 15:32:10;;;;;;;5.00;2.05;;;16.10;67.40;;;;;;10363944;28;20034;-53
2023/04/29 15:37:11;;;;;;;5.63;2.03;;;16.20;67.20;;;;;;10365879;28;20101;-52
2023/04/29 15:42:12;;;;;;;8.40;3.47;;;16.50;66.20;;;;;;10361615;28;20099;-53
2023/04/29 15:47:12;;;;;;;6.65;2.78;;;16.90;64.30;;;;;;10359356;28;20022;-52
2023/04/29 15:52:13;;;;;;;4.85;2.55;;;17.20;64.20;;;;;;10363940;28;20061;-54
2023/04/29 15:57:14;;;;;;;6.22;3.20;;;17.60;62.20;;;;;;10361948;28;20101;-54
2023/04/29 16:02:15;;;;;;;5.93;3.30;;;17.80;62.60;;;;;;10363279;28;20037;-53
2023/04/29 16:07:16;;;;;;;7.85;2.30;;;17.90;66.60;;;;;;10363503;28;20049;-54
2023/04/29 16:12:17;;;;;;;10.88;3.15;;;18.10;64.80;;;;;;10362096;28;20026;-56
2023/04/29 16:17:18;;;;;;;7.43;3.08;;;18.00;65.30;;;;;;10363223;28;20557;-53
2023/04/29 16:22:19;;;;;;;8.07;2.80;;;17.90;65.40;;;;;;10365623;28;20026;-53
2023/04/29 16:27:21;;;;;;;5.72;2.67;;;17.80;65.60;;;;;;10392758;28;20161;-50
2023/04/29 16:32:22;;;;;;;13.00;4.40;;;17.60;65.90;;;;;;10386435;28;20033;-52
2023/04/29 16:37:23;;;;;;;9.77;3.30;;;17.60;65.60;;;;;;10369257;28;20076;-53
2023/04/29 16:42:23;;;;;;;8.02;3.25;;;17.40;66.10;;;;;;10371000;28;20022;-52
2023/04/29 16:47:24;;;;;;;9.38;3.05;;;17.30;66.50;;;;;;10370939;28;20064;-51
2023/04/29 16:52:24;;;;;;;9.45;2.92;;;17.40;67.80;;;;;;10369997;28;20134;-50
2023/04/29 16:57:26;;;;;;;7.30;2.40;;;17.60;68.80;;;;;;10369206;28;20030;-52
2023/04/29 17:02:28;;;;;;;7.10;2.35;;;17.70;68.00;;;;;;10369907;28;20084;-53
2023/04/29 17:07:29;;;;;;;5.68;2.47;;;17.70;67.50;;;;;;10368794;28;20042;-53
2023/04/29 17:12:29;;;;;;;4.50;2.00;;;17.60;66.70;;;;;;10368131;28;20420;-53
2023/04/29 17:17:31;;;;;;;4.07;2.45;;;17.50;67.30;;;;;;10369343;28;20109;-53
2023/04/29 17:22:32;;;;;;;10.55;2.22;;;17.40;67.60;;;;;;10369181;28;20050;-55
2023/04/29 17:27:32;;;;;;;6.57;2.30;;;17.40;67.10;;;;;;10369425;28;20044;-55
2023/04/29 17:32:37;;;;;;;8.98;2.05;;;17.40;67.30;;;;;;10368432;28;20612;-52
2023/04/29 17:37:38;;;;;;;7.28;2.35;;;17.30;66.90;;;;;;10369331;28;20025;-55
2023/04/29 17:42:39;;;;;;;6.13;2.17;;;17.20;66.80;;;;;;10368350;28;20101;-54
2023/04/29 17:47:40;;;;;;;8.38;2.80;;;17.20;66.70;;;;;;10368614;28;20022;-55
2023/04/29 17:52:41;;;;;;;5.95;2.03;;;17.20;66.70;;;;;;10368021;28;20156;-53
2023/04/29 17:57:41;;;;;;;7.60;2.30;;;17.10;67.00;;;;;;10368353;28;20033;-55
2023/04/29 18:02:42;;;;;;;11.13;3.38;;;17.10;67.40;;;;;;10367970;28;20024;-53
2023/04/29 18:07:43;;;;;;;5.82;2.40;;;17.00;67.00;;;;;;10367925;28;20464;-53
2023/04/29 18:12:44;;;;;;;5.47;1.98;;;16.90;66.80;;;;;;10365000;28;20033;-54
2023/04/29 18:17:45;;;;;;;4.78;1.90;;;16.90;67.00;;;;;;10366396;28;20022;-53
2023/04/29 18:22:46;;;;;;;6.35;2.50;;;16.80;67.20;;;;;;10367289;28;20026;-54
2023/04/29 18:27:47;;;;;;;7.60;2.65;;;16.80;67.10;;;;;;10359900;28;20531;-54
2023/04/29 18:32:47;;;;;;;6.32;2.47;;;16.90;66.90;;;;;;10366905;28;20458;-56
2023/04/29 18:37:48;;;;;;;11.73;2.50;;;17.00;66.70;;;;;;10365525;28;20064;-55
2023/04/29 18:42:49;;;;;;;7.90;2.25;;;17.00;66.60;;;;;;10365432;28;20100;-57
2023/04/29 18:47:50;;;;;;;5.68;2.28;;;17.00;67.20;;;;;;10365954;28;20054;-55
2023/04/29 18:52:50;;;;;;;7.10;2.47;;;17.10;66.80;;;;;;10363705;28;20125;-55
2023/04/29 18:57:51;;;;;;;10.02;2.10;;;16.90;67.60;;;;;;10365924;28;20057;-55
2023/04/29 19:02:52;;;;;;;6.63;2.25;;;16.80;67.10;;;;;;10365562;28;20405;-56
2023/04/29 19:07:53;;;;;;;4.10;1.75;;;16.80;67.10;;;;;;10348212;28;20038;-55
2023/04/29 19:12:54;;;;;;;4.55;2.10;;;16.90;67.30;;;;;;10363596;28;20117;-55
2023/04/29 19:17:54;;;;;;;5.95;2.17;;;16.90;67.30;;;;;;10357709;28;20561;-55
2023/04/29 19:22:55;;;;;;;7.50;2.40;;;16.90;67.10;;;;;;10361171;28;20021;-56
2023/04/29 19:27:56;;;;;;;5.65;2.00;;;17.00;67.10;;;;;;10363996;28;20018;-54
2023/04/29 19:32:57;;;;;;;4.75;2.10;;;17.20;66.80;;;;;;10364912;28;20062;-56
2023/04/29 19:37:57;;;;;;;8.40;3.45;;;17.20;66.70;;;;;;10363272;28;20060;-55
2023/04/29 19:42:58;;;;;;;10.27;2.22;;;17.10;66.50;;;;;;10363997;28;20053;-57
2023/04/29 19:48:00;;;;;;;6.50;1.88;;;17.00;66.70;;;;;;10362275;28;20026;-56
2023/04/29 19:53:01;;;;;;;3.05;1.85;;;17.00;66.70;;;;;;10362062;28;20038;-55
2023/04/29 19:58:02;;;;;;;5.20;1.90;;;17.00;66.80;;;;;;10361381;28;20105;-56
2023/04/29 20:03:02;;;;;;;2.67;1.67;;;16.90;66.90;;;;;;10360035;28;20060;-55
2023/04/29 20:08:03;;;;;;;3.53;1.80;;;16.80;67.00;;;;;;10361180;28;20056;-56
2023/04/29 20:13:04;;;;;;;3.42;1.63;;;16.80;67.10;;;;;;10358134;28;20424;-56
2023/04/29 20:18:05;;;;;;;5.20;1.90;;;16.80;67.20;;;;;;10360732;28;20574;-56
2023/04/29 20:23:06;;;;;;;3.08;1.73;;;16.80;67.20;;;;;;10350289;28;20117;-55
2023/04/29 20:28:08;;;;;;;3.50;1.98;;;16.70;67.20;;;;;;10360797;28;20121;-56
2023/04/29 20:33:08;;;;;;;2.97;1.83;;;16.70;67.20;;;;;;10362804;28;20038;-56
2023/04/29 20:38:09;;;;;;;5.13;2.03;;;16.70;67.20;;;;;;10363560;28;20546;-56
2023/04/29 20:43:10;;;;;;;18.15;2.42;;;16.60;67.20;;;;;;10363205;28;20057;-55
2023/04/29 20:48:11;;;;;;;3.40;1.52;;;16.60;67.30;;;;;;10363724;28;20133;-57
2023/04/29 20:53:11;;;;;;;4.20;2.38;;;16.60;67.30;;;;;;10363241;28;20118;-56
2023/04/29 20:58:12;;;;;;;3.88;1.67;;;16.60;67.30;;;;;;10362779;28;20696;-56
2023/04/29 21:03:13;;;;;;;3.33;2.10;;;16.50;67.30;;;;;;10363218;28;20674;-56
2023/04/29 21:08:13;;;;;;;4.80;2.33;;;16.50;67.40;;;;;;10366886;28;20034;-55
2023/04/29 21:13:16;;;;;;;4.43;2.08;;;16.50;67.30;;;;;;10370454;28;20440;-56
2023/04/29 21:18:17;;;;;;;4.03;2.42;;;16.50;67.40;;;;;;10370193;28;20509;-56
2023/04/29 21:23:18;;;;;;;3.35;1.77;;;16.50;67.50;;;;;;10369481;28;20089;-56
2023/04/29 21:28:18;;;;;;;2.67;1.48;;;16.40;67.40;;;;;;10368272;28;20032;-54
2023/04/29 21:33:19;;;;;;;3.35;1.92;;;16.50;67.50;;;;;;10367247;28;20736;-56
2023/04/29 21:38:20;;;;;;;3.95;1.83;;;16.50;67.50;;;;;;10364855;28;20777;-55
2023/04/29 21:43:20;;;;;;;2.67;1.45;;;16.40;67.50;;;;;;10367943;28;20056;-55
2023/04/29 21:48:22;;;;;;;3.30;1.50;;;16.40;67.50;;;;;;10367425;28;20438;-55
2023/04/29 21:53:22;;;;;;;5.25;1.85;;;16.40;67.70;;;;;;10368772;28;20511;-55
2023/04/29 21:58:23;;;;;;;2.55;1.50;;;16.40;67.60;;;;;;10368457;28;20147;-56
2023/04/29 22:03:24;;;;;;;2.45;1.50;;;16.30;67.80;;;;;;10367650;28;20050;-56
2023/04/29 22:08:24;;;;;;;2.58;1.80;;;16.30;67.90;;;;;;10367979;28;20028;-55
2023/04/29 22:13:25;;;;;;;2.92;1.77;;;16.30;67.90;;;;;;10367806;28;20099;-55
2023/04/29 22:18:26;;;;;;;3.78;2.22;;;16.30;68.00;;;;;;10362523;28;20109;-52
2023/04/29 22:23:26;;;;;;;3.67;1.90;;;16.20;67.90;;;;;;10367565;28;20539;-55
2023/04/29 22:28:27;;;;;;;2.38;1.58;;;16.30;68.00;;;;;;10365825;28;20145;-55
2023/04/29 22:33:28;;;;;;;2.88;1.50;;;16.20;67.90;;;;;;10368075;28;20059;-56
2023/04/29 22:38:29;;;;;;;2.40;1.58;;;16.20;67.90;;;;;;10365796;28;20103;-56
2023/04/29 22:43:30;;;;;;;2.22;1.50;;;16.20;67.80;;;;;;10366870;28;20109;-55
2023/04/29 22:48:30;;;;;;;4.18;2.10;;;16.20;67.80;;;;;;10366582;28;20048;-56
2023/04/29 22:53:31;;;;;;;2.95;1.90;;;16.20;67.70;;;;;;10366563;28;20105;-56
2023/04/29 22:58:32;;;;;;;2.75;1.98;;;16.20;67.40;;;;;;10366222;28;20024;-57
2023/04/29 23:03:33;;;;;;;2.97;1.80;;;16.10;67.30;;;;;;10365290;28;20910;-55
2023/04/29 23:08:34;;;;;;;2.70;1.75;;;16.10;67.30;;;;;;10365765;28;20064;-55
2023/04/29 23:13:34;;;;;;;3.42;2.08;;;16.10;67.10;;;;;;10365836;28;20569;-54
2023/04/29 23:18:35;;;;;;;2.83;1.80;;;16.10;67.00;;;;;;10365616;28;20032;-55
2023/04/29 23:23:36;;;;;;;3.00;2.10;;;16.10;66.80;;;;;;10364894;28;20018;-55
2023/04/29 23:28:36;;;;;;;3.58;2.40;;;16.10;66.80;;;;;;10362272;28;20028;-55
2023/04/29 23:33:37;;;;;;;3.40;2.00;;;16.10;66.70;;;;;;10364870;28;20046;-56
2023/04/29 23:38:38;;;;;;;6.82;2.28;;;16.10;66.70;;;;;;10365087;28;20509;-56
2023/04/29 23:43:38;;;;;;;3.78;2.03;;;16.00;66.60;;;;;;10365001;28;20105;-55
2023/04/29 23:48:39;;;;;;;2.67;1.52;;;16.00;66.50;;;;;;10363269;28;20050;-56
2023/04/29 23:53:39;;;;;;;3.33;2.15;;;16.00;66.40;;;;;;10364560;28;20050;-54
2023/04/29 23:58:40;;;;;;;3.03;2.00;;;16.00;66.30;;;;;;10364462;28;20037;-56
